createdAt,value
2023-04-09T00:04:20.283Z,41.49
2023-04-09T00:14:22.005Z,41.48
2023-04-09T00:24:23.417Z,41.44
2023-04-09T00:34:24.802Z,41.41
2023-04-09T00:44:26.243Z,41.47
2023-04-09T00:54:27.863Z,41.55
2023-04-09T01:04:29.295Z,41.42
2023-04-09T01:14:53.290Z,41.56
2023-04-09T01:25:04.895Z,41.54
2023-04-09T01:35:06.447Z,41.66
2023-04-09T01:45:08.167Z,41.56
2023-04-09T01:55:09.661Z,41.60
2023-04-09T02:05:11.077Z,41.72
2023-04-09T02:15:12.628Z,41.73
2023-04-09T02:25:14.821Z,41.72
2023-04-09T02:35:16.312Z,41.63
2023-04-09T02:45:17.740Z,41.84
2023-04-09T02:55:19.791Z,41.90
2023-04-09T03:05:21.457Z,41.78
2023-04-09T03:15:22.874Z,41.67
2023-04-09T03:25:24.340Z,41.66
2023-04-09T03:35:26.110Z,41.17
2023-04-09T03:45:28.935Z,40.78
2023-04-09T03:55:30.479Z,40.40
2023-04-09T04:05:31.887Z,40.15
2023-04-09T04:15:33.350Z,39.85
2023-04-09T04:25:34.803Z,39.54
2023-04-09T04:35:36.379Z,39.39
2023-04-09T04:45:37.872Z,39.41
2023-04-09T04:55:39.582Z,39.47
2023-04-09T05:05:41.015Z,39.32
2023-04-09T05:15:42.455Z,39.57
2023-04-09T05:25:44.017Z,39.56
2023-04-09T05:35:45.980Z,39.33
2023-04-09T05:45:47.736Z,39.17
2023-04-09T05:55:49.364Z,38.96
2023-04-09T06:05:50.875Z,38.77
2023-04-09T06:15:52.591Z,38.62
2023-04-09T06:25:54.042Z,37.59
2023-04-09T06:35:55.649Z,36.92
2023-04-09T06:45:57.310Z,36.26
2023-04-09T06:55:58.872Z,35.87
2023-04-09T07:06:00.787Z,35.33
2023-04-09T07:16:02.475Z,35.12
2023-04-09T07:26:04.896Z,34.41
2023-04-09T07:36:06.774Z,33.63
2023-04-09T07:46:08.202Z,33.21
2023-04-09T07:56:09.651Z,32.93
2023-04-09T08:06:11.069Z,32.50
2023-04-09T08:16:12.539Z,32.13
2023-04-09T08:26:14.008Z,31.73
2023-04-09T08:36:16.003Z,31.08
2023-04-09T08:46:18.154Z,30.64
2023-04-09T08:56:21.189Z,29.74
2023-04-09T09:06:30.046Z,27.81
2023-04-09T09:16:34.499Z,24.84
2023-04-09T09:26:37.997Z,22.03
2023-04-09T09:36:39.668Z,23.97
2023-04-09T09:46:42.617Z,26.65
2023-04-09T09:56:44.140Z,26.77
2023-04-09T10:06:46.068Z,28.87
2023-04-09T10:16:47.618Z,30.23
2023-04-09T10:26:49.357Z,30.65
2023-04-09T10:36:55.762Z,31.20
2023-04-09T10:46:57.345Z,31.48
2023-04-09T10:57:07.974Z,31.36
2023-04-09T11:07:09.426Z,31.48
2023-04-09T11:17:11.019Z,31.93
2023-04-09T11:27:12.940Z,31.84
2023-04-09T11:37:14.704Z,32.15
2023-04-09T11:47:19.001Z,32.36
2023-04-09T11:57:20.566Z,32.25
2023-04-09T12:07:22.193Z,32.23
2023-04-09T12:17:23.814Z,32.33
2023-04-09T12:27:25.404Z,32.17
2023-04-09T12:37:28.586Z,32.32
2023-04-09T12:47:30.077Z,32.20
2023-04-09T12:57:31.564Z,32.27
2023-04-09T13:07:32.982Z,32.29
2023-04-09T13:17:34.421Z,32.48
2023-04-09T13:27:36.085Z,32.69
2023-04-09T13:37:37.575Z,32.85
2023-04-09T13:47:39.209Z,32.55
2023-04-09T13:57:41.058Z,32.48
2023-04-09T14:07:42.502Z,32.77
2023-04-09T14:17:44.328Z,33.02
2023-04-09T14:27:46.406Z,32.93
2023-04-09T14:37:48.209Z,33.21
2023-04-09T14:47:49.823Z,33.51
2023-04-09T14:57:52.639Z,33.53
2023-04-09T15:07:54.667Z,33.54
2023-04-09T15:17:56.452Z,33.56
2023-04-09T15:27:58.300Z,33.69
2023-04-09T15:37:59.858Z,33.93
2023-04-09T15:48:01.568Z,33.98
2023-04-09T15:58:03.061Z,33.97
2023-04-09T16:08:04.479Z,33.71
2023-04-09T16:18:06.103Z,34.04
2023-04-09T16:28:08.529Z,33.99
2023-04-09T16:38:10.186Z,34.29
2023-04-09T16:48:12.833Z,34.15
2023-04-09T16:58:14.397Z,34.25
2023-04-09T17:08:17.155Z,34.33
2023-04-09T17:18:19.004Z,34.38
2023-04-09T17:28:20.565Z,34.53
2023-04-09T17:38:24.682Z,34.73
2023-04-09T17:48:26.710Z,34.91
2023-04-09T17:58:28.574Z,34.88
2023-04-09T18:08:30.164Z,35.14
2023-04-09T18:18:31.556Z,35.30
2023-04-09T18:28:33.576Z,35.35
2023-04-09T18:38:34.994Z,35.55
2023-04-09T18:48:36.467Z,35.60
2023-04-09T18:58:38.712Z,35.89
2023-04-09T19:08:40.986Z,35.85
2023-04-09T19:18:42.574Z,35.98
2023-04-09T19:28:44.009Z,35.99
2023-04-09T19:38:45.499Z,36.08
2023-04-09T19:48:47.372Z,36.14
2023-04-09T19:58:48.765Z,36.16
2023-04-09T20:08:51.252Z,36.15
2023-04-09T20:18:53.184Z,36.26
2023-04-09T20:28:55.102Z,36.29
2023-04-09T20:38:56.798Z,36.26
2023-04-09T20:48:58.372Z,36.35
2023-04-09T20:58:59.924Z,36.26
2023-04-09T21:09:01.364Z,36.34
2023-04-09T21:19:07.052Z,36.25
2023-04-09T21:29:08.573Z,36.31
2023-04-09T21:39:09.985Z,36.35
2023-04-09T21:49:11.529Z,36.36
2023-04-09T21:59:13.102Z,36.31
2023-04-09T22:09:14.676Z,36.39
2023-04-09T22:19:16.692Z,36.39
2023-04-09T22:29:18.130Z,36.45
2023-04-09T22:39:19.665Z,36.61
2023-04-09T22:49:23.640Z,36.57
2023-04-09T22:59:33.711Z,36.75
2023-04-09T23:09:40.810Z,36.72
2023-04-09T23:19:42.421Z,36.89
2023-04-09T23:29:44.133Z,36.88
2023-04-09T23:39:48.473Z,36.89
2023-04-09T23:49:49.947Z,37.00
2023-04-09T23:59:51.757Z,37.06
